Time;durP1;ratioP1;P1;durP2;ratioP2;P2;SDS_P1;SDS_P2;PMS_P1;PMS_P2;Temp;Humidity;BMP_temperature;BMP_pressure;BME280_temperature;BME280_humidity;BME280_pressure;Samples;Min_cycle;Max_cycle;Signal;HPM_P1;HPM_P2
2023/12/05 00:00:41;;;;;;;1.90;1.90;;;15.70;62.90;;;;;;5109197;27;43450;-71
2023/12/05 00:03:09;;;;;;;2.10;2.10;;;15.70;62.80;;;;;;5109239;27;43472;-71
2023/12/05 00:05:37;;;;;;;1.80;1.80;;;15.70;62.90;;;;;;5109594;27;43355;-71
2023/12/05 00:08:05;;;;;;;1.90;1.90;;;15.70;62.90;;;;;;5105965;27;46127;-70
2023/12/05 00:10:33;;;;;;;1.80;1.80;;;15.70;62.90;;;;;;5108624;27;43455;-70
2023/12/05 00:13:03;;;;;;;1.90;1.90;;;15.60;63.00;;;;;;5108970;27;43381;-70
2023/12/05 00:15:31;;;;;;;2.03;2.03;;;15.70;63.20;;;;;;5106828;27;43527;-70
2023/12/05 00:18:00;;;;;;;1.87;1.87;;;15.60;63.00;;;;;;5108796;27;43947;-71
2023/12/05 00:20:28;;;;;;;1.73;1.73;;;15.60;63.00;;;;;;5108505;27;43368;-71
2023/12/05 00:22:56;;;;;;;1.73;1.73;;;15.60;63.00;;;;;;5108301;27;43523;-71
2023/12/05 00:25:24;;;;;;;1.63;1.63;;;15.60;63.00;;;;;;5108380;27;43391;-70
2023/12/05 00:27:52;;;;;;;1.70;1.70;;;15.60;63.10;;;;;;5108715;27;43621;-71
2023/12/05 00:30:21;;;;;;;1.70;1.70;;;15.60;63.10;;;;;;5105265;27;43976;-70
2023/12/05 00:32:49;;;;;;;1.80;1.80;;;15.60;63.40;;;;;;5109017;27;43745;-71
2023/12/05 00:35:19;;;;;;;1.90;1.90;;;15.60;63.30;;;;;;5105537;27;43734;-71
2023/12/05 00:37:47;;;;;;;1.50;1.50;;;15.70;63.30;;;;;;5108672;27;43602;-70
2023/12/05 00:40:15;;;;;;;1.70;1.70;;;15.80;62.90;;;;;;5108520;27;44065;-71
2023/12/05 00:42:43;;;;;;;1.53;1.53;;;15.80;62.60;;;;;;5108716;27;43471;-71
2023/12/05 00:45:13;;;;;;;1.77;1.77;;;15.80;62.60;;;;;;5101595;27;43468;-71
2023/12/05 00:47:41;;;;;;;1.40;1.40;;;15.80;62.70;;;;;;5107791;27;43858;-71
2023/12/05 00:50:10;;;;;;;1.60;1.60;;;15.80;62.90;;;;;;5108375;27;43418;-71
2023/12/05 00:52:39;;;;;;;1.50;1.50;;;15.70;62.90;;;;;;5108466;27;43382;-71
2023/12/05 00:55:08;;;;;;;1.63;1.63;;;15.70;62.90;;;;;;5108120;27;43990;-71
2023/12/05 00:57:36;;;;;;;1.60;1.60;;;15.70;62.90;;;;;;5106404;27;43606;-71
2023/12/05 01:00:05;;;;;;;1.57;1.57;;;15.70;62.90;;;;;;5108480;27;43421;-72
2023/12/05 01:02:33;;;;;;;1.43;1.43;;;15.70;63.00;;;;;;5100991;27;43357;-71
2023/12/05 01:05:02;;;;;;;1.67;1.67;;;15.70;63.10;;;;;;5108678;27;43437;-71
2023/12/05 01:07:30;;;;;;;1.33;1.33;;;15.70;63.20;;;;;;5107463;27;43859;-71
2023/12/05 01:10:00;;;;;;;1.30;1.30;;;15.60;63.20;;;;;;5107396;27;43489;-71
2023/12/05 01:12:28;;;;;;;1.40;1.40;;;15.60;63.10;;;;;;5108448;27;43356;-72
2023/12/05 01:14:59;;;;;;;1.50;1.50;;;15.60;63.10;;;;;;5126537;27;43382;-67
2023/12/05 01:17:27;;;;;;;1.47;1.47;;;15.60;63.10;;;;;;5131800;27;43860;-67
2023/12/05 01:19:56;;;;;;;1.40;1.40;;;15.60;63.10;;;;;;5128473;27;44514;-67
2023/12/05 01:22:24;;;;;;;1.40;1.40;;;15.60;63.20;;;;;;5112713;27;43605;-67
2023/12/05 01:24:55;;;;;;;1.47;1.47;;;15.60;63.30;;;;;;5111753;27;43427;-70
2023/12/05 01:27:24;;;;;;;1.40;1.40;;;15.60;63.50;;;;;;5111046;28;43572;-68
2023/12/05 01:29:53;;;;;;;1.50;1.50;;;15.60;63.40;;;;;;5111296;27;43422;-69
2023/12/05 01:32:21;;;;;;;1.60;1.60;;;15.70;63.20;;;;;;5112067;27;43399;-68
2023/12/05 01:34:48;;;;;;;1.47;1.47;;;15.80;62.90;;;;;;5111988;27;43502;-67
2023/12/05 01:37:16;;;;;;;1.37;1.37;;;15.80;62.80;;;;;;5111725;27;43811;-68
2023/12/05 01:39:44;;;;;;;1.37;1.37;;;15.80;62.80;;;;;;5106784;28;43373;-67
2023/12/05 01:42:13;;;;;;;1.30;1.30;;;15.80;62.90;;;;;;5111713;27;43374;-67
2023/12/05 01:44:42;;;;;;;1.17;1.17;;;15.70;63.00;;;;;;5111622;27;43486;-67
2023/12/05 01:47:10;;;;;;;1.20;1.20;;;15.70;63.00;;;;;;5111033;27;43846;-66
2023/12/05 01:49:38;;;;;;;1.40;1.40;;;15.70;63.70;;;;;;5111930;27;43315;-69
2023/12/05 01:52:06;;;;;;;1.30;1.30;;;15.70;63.10;;;;;;5111431;27;43394;-67
2023/12/05 01:54:34;;;;;;;1.20;1.20;;;15.70;63.20;;;;;;5097561;27;43417;-71
2023/12/05 01:57:02;;;;;;;1.20;1.20;;;15.70;63.20;;;;;;5086965;28;45137;-70
2023/12/05 01:59:30;;;;;;;1.20;1.20;;;15.70;63.30;;;;;;5088533;27;43521;-70
2023/12/05 02:01:59;;;;;;;1.30;1.30;;;15.60;63.30;;;;;;5090875;27;43472;-70
2023/12/05 02:04:28;;;;;;;1.30;1.30;;;15.60;63.30;;;;;;5091098;27;44011;-70
2023/12/05 02:06:56;;;;;;;1.30;1.30;;;15.60;63.30;;;;;;5083969;28;43869;-70
2023/12/05 02:09:25;;;;;;;1.13;1.13;;;15.60;63.30;;;;;;5090564;28;43854;-71
2023/12/05 02:11:53;;;;;;;1.00;1.00;;;15.60;63.30;;;;;;5085760;28;43434;-71
2023/12/05 02:14:21;;;;;;;1.20;1.20;;;15.60;63.30;;;;;;5090772;28;43928;-70
2023/12/05 02:16:53;;;;;;;1.10;1.10;;;15.60;63.40;;;;;;5090208;27;43932;-71
2023/12/05 02:19:43;;;;;;;1.20;1.20;;;15.60;63.60;;;;;;5086462;28;43363;-70
2023/12/05 02:22:13;;;;;;;1.00;1.00;;;15.60;63.50;;;;;;5102768;27;44112;-70
2023/12/05 02:24:47;;;;;;;1.10;1.10;;;15.60;63.40;;;;;;5118531;27;43852;-69
2023/12/05 02:27:17;;;;;;;1.00;1.00;;;15.60;63.40;;;;;;5121679;27;43602;-71
2023/12/05 02:29:49;;;;;;;1.07;1.07;;;15.60;63.50;;;;;;5121384;27;43433;-70
2023/12/05 02:32:17;;;;;;;1.20;1.20;;;15.60;63.50;;;;;;5121381;27;43391;-70
2023/12/05 02:34:45;;;;;;;1.10;1.10;;;15.60;63.50;;;;;;5120366;27;43400;-70
2023/12/05 02:37:17;;;;;;;0.97;0.97;;;15.60;63.80;;;;;;5120592;27;43600;-70
2023/12/05 02:39:49;;;;;;;1.10;1.10;;;15.60;63.70;;;;;;5122430;27;43371;-71
2023/12/05 02:42:17;;;;;;;1.10;1.10;;;15.70;63.50;;;;;;5098978;27;43367;-70
2023/12/05 02:44:47;;;;;;;0.83;0.83;;;15.80;63.10;;;;;;5117067;27;43402;-70
2023/12/05 02:47:17;;;;;;;1.07;1.07;;;15.80;62.90;;;;;;5121682;27;43705;-70
2023/12/05 02:49:45;;;;;;;1.00;1.00;;;15.80;62.90;;;;;;5122969;27;43402;-69
2023/12/05 02:52:21;;;;;;;1.00;1.00;;;15.80;62.90;;;;;;5123603;27;43473;-70
2023/12/05 02:54:49;;;;;;;0.90;0.90;;;15.80;63.20;;;;;;5122882;27;43670;-70
2023/12/05 02:57:17;;;;;;;1.17;1.17;;;15.70;63.10;;;;;;5122214;27;43704;-70
2023/12/05 02:59:45;;;;;;;1.00;1.00;;;15.70;63.10;;;;;;5122700;27;43465;-71
2023/12/05 03:02:13;;;;;;;0.90;0.90;;;15.70;63.10;;;;;;5118237;27;43375;-71
2023/12/05 03:04:43;;;;;;;1.10;1.10;;;15.70;63.20;;;;;;5115446;27;43462;-71
2023/12/05 03:07:11;;;;;;;1.23;1.23;;;15.70;63.30;;;;;;5109507;27;43600;-72
2023/12/05 03:09:39;;;;;;;0.80;0.80;;;15.70;63.40;;;;;;5109653;27;43470;-71
2023/12/05 03:12:08;;;;;;;1.10;1.10;;;15.70;63.50;;;;;;5110043;27;43462;-71
2023/12/05 03:14:36;;;;;;;1.00;1.00;;;15.60;63.40;;;;;;5101519;27;43478;-72
2023/12/05 03:17:04;;;;;;;1.00;1.00;;;15.60;63.40;;;;;;5106211;27;45964;-71
2023/12/05 03:19:32;;;;;;;0.90;0.90;;;15.70;63.50;;;;;;5105543;27;43498;-72
2023/12/05 03:22:02;;;;;;;0.90;0.90;;;15.70;63.50;;;;;;5109379;27;43407;-71
2023/12/05 03:24:30;;;;;;;0.90;0.90;;;15.60;63.50;;;;;;5110204;27;44124;-72
2023/12/05 03:26:58;;;;;;;0.80;0.80;;;15.60;63.50;;;;;;5109694;27;45033;-71
2023/12/05 03:29:27;;;;;;;1.00;1.00;;;15.60;63.70;;;;;;5109863;27;43687;-71
2023/12/05 03:31:56;;;;;;;1.10;1.10;;;15.60;63.80;;;;;;5105808;27;43887;-71
2023/12/05 03:34:24;;;;;;;1.13;1.13;;;15.70;63.80;;;;;;5122626;27;43578;-68
2023/12/05 03:36:52;;;;;;;0.70;0.70;;;15.80;63.50;;;;;;5133275;27;43669;-67
2023/12/05 03:39:21;;;;;;;0.90;0.90;;;15.80;63.10;;;;;;5134412;27;43385;-66
2023/12/05 03:41:49;;;;;;;0.90;0.90;;;15.80;63.00;;;;;;5133763;27;43426;-67
2023/12/05 03:44:17;;;;;;;0.80;0.80;;;15.80;63.10;;;;;;5134685;27;43371;-68
2023/12/05 03:46:45;;;;;;;1.00;1.00;;;15.80;63.80;;;;;;5133701;27;43701;-68
2023/12/05 03:49:13;;;;;;;1.00;1.00;;;15.70;63.30;;;;;;5133194;27;43408;-67
2023/12/05 03:51:41;;;;;;;0.80;0.80;;;15.80;63.40;;;;;;5133738;27;43526;-68
2023/12/05 03:54:09;;;;;;;0.93;0.93;;;15.70;63.20;;;;;;5133898;27;43560;-67
2023/12/05 03:56:38;;;;;;;1.10;1.10;;;15.70;63.30;;;;;;5133196;27;43791;-68
2023/12/05 03:59:06;;;;;;;0.80;0.80;;;15.70;63.40;;;;;;5134100;27;43421;-67
2023/12/05 04:01:34;;;;;;;0.87;0.87;;;15.70;63.50;;;;;;5133369;27;43375;-69
2023/12/05 04:04:02;;;;;;;0.90;0.90;;;15.70;63.50;;;;;;5134026;27;43493;-69
2023/12/05 04:06:31;;;;;;;0.80;0.80;;;15.60;63.60;;;;;;5133457;27;43615;-67
2023/12/05 04:08:59;;;;;;;0.83;0.83;;;15.60;63.60;;;;;;5133461;27;43368;-67
2023/12/05 04:11:30;;;;;;;0.90;0.90;;;15.60;63.60;;;;;;5133196;27;43474;-68
2023/12/05 04:13:59;;;;;;;1.00;1.00;;;15.60;63.60;;;;;;5129442;27;43335;-69
2023/12/05 04:16:27;;;;;;;0.80;0.80;;;15.60;63.60;;;;;;5130700;27;43698;-68
2023/12/05 04:18:55;;;;;;;0.70;0.70;;;15.60;63.60;;;;;;5133127;27;43428;-69
2023/12/05 04:21:25;;;;;;;1.00;1.00;;;15.60;63.70;;;;;;5129607;27;43429;-67
2023/12/05 04:23:54;;;;;;;0.90;0.90;;;15.60;63.80;;;;;;5115598;27;43423;-67
2023/12/05 04:26:22;;;;;;;0.77;0.77;;;15.60;63.90;;;;;;5132971;27;43632;-68
2023/12/05 04:28:50;;;;;;;0.80;0.80;;;15.70;63.90;;;;;;5130268;27;43341;-67
2023/12/05 04:31:19;;;;;;;1.00;1.00;;;15.70;63.40;;;;;;5133181;27;43388;-67
2023/12/05 04:33:47;;;;;;;0.70;0.70;;;15.80;63.40;;;;;;5126974;27;43442;-67
2023/12/05 04:36:15;;;;;;;0.70;0.70;;;15.80;63.30;;;;;;5132848;27;43602;-67
2023/12/05 04:38:43;;;;;;;0.90;0.90;;;15.80;64.10;;;;;;5132994;27;43465;-67
2023/12/05 04:41:11;;;;;;;0.87;0.87;;;15.70;63.40;;;;;;5133177;27;43416;-67
2023/12/05 04:43:40;;;;;;;0.83;0.83;;;15.70;63.60;;;;;;5128655;27;43403;-71
2023/12/05 04:46:08;;;;;;;0.70;0.70;;;15.70;63.50;;;;;;5108421;27;43874;-70
2023/12/05 04:48:37;;;;;;;0.80;0.80;;;15.70;63.50;;;;;;5108393;27;43454;-70
2023/12/05 04:51:06;;;;;;;0.80;0.80;;;15.70;63.60;;;;;;5108540;27;44430;-71
2023/12/05 04:53:34;;;;;;;0.80;0.80;;;15.70;63.60;;;;;;5108628;27;43483;-70
2023/12/05 04:56:02;;;;;;;0.87;0.87;;;15.70;63.70;;;;;;5108147;27;43691;-71
2023/12/05 04:58:30;;;;;;;0.90;0.90;;;15.70;63.70;;;;;;5108094;27;43535;-71
2023/12/05 05:00:58;;;;;;;1.17;1.10;;;15.70;64.00;;;;;;5108244;27;43392;-71
2023/12/05 05:03:26;;;;;;;2.97;1.03;;;15.70;63.90;;;;;;5108938;27;43496;-71
2023/12/05 05:05:55;;;;;;;1.23;1.17;;;15.80;63.70;;;;;;5107896;27;43591;-71
2023/12/05 05:08:24;;;;;;;1.40;1.30;;;15.80;63.40;;;;;;5098612;27;44643;-71
2023/12/05 05:10:52;;;;;;;2.10;1.30;;;15.80;63.30;;;;;;5107799;27;43387;-71
2023/12/05 05:13:20;;;;;;;1.43;1.10;;;15.80;63.30;;;;;;5108357;27;43584;-70
2023/12/05 05:15:48;;;;;;;1.10;1.10;;;15.80;63.40;;;;;;5107698;27;43618;-71
2023/12/05 05:18:16;;;;;;;1.10;1.10;;;15.80;63.60;;;;;;5100725;27;44952;-71
2023/12/05 05:20:44;;;;;;;1.30;1.20;;;15.80;63.50;;;;;;5108153;27;43428;-71
2023/12/05 05:23:14;;;;;;;1.23;1.17;;;15.80;63.60;;;;;;5108866;27;43364;-70
2023/12/05 05:25:42;;;;;;;1.63;1.33;;;15.80;63.60;;;;;;5118990;27;43622;-70
2023/12/05 05:28:10;;;;;;;1.97;1.27;;;15.70;63.50;;;;;;5119709;27;43754;-70
2023/12/05 05:30:38;;;;;;;1.40;1.30;;;15.70;63.60;;;;;;5114065;27;43378;-70
2023/12/05 05:33:06;;;;;;;2.40;1.40;;;15.70;63.70;;;;;;5120164;27;44070;-70
2023/12/05 05:35:34;;;;;;;1.30;1.30;;;15.70;64.00;;;;;;5122774;27;43735;-70
2023/12/05 05:38:02;;;;;;;1.50;1.30;;;15.70;63.80;;;;;;5122444;27;43366;-70
2023/12/05 05:40:32;;;;;;;1.77;1.67;;;15.70;63.80;;;;;;5123269;27;43421;-70
2023/12/05 05:43:00;;;;;;;1.10;1.10;;;15.70;63.80;;;;;;5122951;27;43413;-70
2023/12/05 05:45:28;;;;;;;1.60;1.50;;;15.70;63.80;;;;;;5121630;27;43955;-70
2023/12/05 05:47:56;;;;;;;1.57;1.47;;;15.70;63.80;;;;;;5114471;27;45185;-70
2023/12/05 05:50:24;;;;;;;1.93;1.83;;;15.70;63.90;;;;;;5122660;27;43408;-70
2023/12/05 05:52:52;;;;;;;1.90;1.70;;;15.70;63.90;;;;;;5123088;27;43391;-70
2023/12/05 05:55:20;;;;;;;1.67;1.57;;;15.70;63.90;;;;;;5112306;27;43998;-70
2023/12/05 05:57:49;;;;;;;1.70;1.60;;;15.80;63.80;;;;;;5111074;27;43455;-71
2023/12/05 06:00:20;;;;;;;1.70;1.63;;;15.80;63.30;;;;;;5110901;27;43783;-71
2023/12/05 06:02:48;;;;;;;2.20;2.00;;;15.90;63.30;;;;;;5110893;27;43974;-71
2023/12/05 06:05:16;;;;;;;1.50;1.40;;;15.90;63.30;;;;;;5111223;27;43710;-71
2023/12/05 06:07:44;;;;;;;2.53;1.90;;;15.90;63.30;;;;;;5110849;27;43900;-70
2023/12/05 06:10:12;;;;;;;1.60;1.50;;;15.80;63.30;;;;;;5110104;27;44063;-71
2023/12/05 06:12:40;;;;;;;1.90;1.60;;;15.80;63.50;;;;;;5111473;27;43409;-71
2023/12/05 06:15:10;;;;;;;1.60;1.50;;;15.80;63.50;;;;;;5110833;27;43605;-70
2023/12/05 06:17:38;;;;;;;1.50;1.40;;;15.80;63.50;;;;;;5106268;27;43566;-70
2023/12/05 06:20:08;;;;;;;1.67;1.57;;;15.80;63.50;;;;;;5099798;27;43368;-71
2023/12/05 06:22:36;;;;;;;1.87;1.50;;;15.80;63.60;;;;;;5104411;27;43447;-71
2023/12/05 06:25:05;;;;;;;1.87;1.77;;;15.80;63.70;;;;;;5110575;27;43610;-70
2023/12/05 06:27:33;;;;;;;2.03;1.80;;;15.80;63.80;;;;;;5110716;27;43375;-71
2023/12/05 06:30:01;;;;;;;1.60;1.50;;;15.70;63.80;;;;;;5111134;27;43394;-70
2023/12/05 06:32:45;;;;;;;1.40;1.40;;;15.70;63.80;;;;;;5103358;27;43529;-71
2023/12/05 06:35:13;;;;;;;1.70;1.60;;;15.70;63.70;;;;;;5119301;27;43785;-70
2023/12/05 06:37:43;;;;;;;1.90;1.80;;;15.70;63.70;;;;;;5120767;27;43358;-69
2023/12/05 06:40:17;;;;;;;2.03;1.87;;;15.80;63.80;;;;;;5122171;27;43502;-70
2023/12/05 06:42:45;;;;;;;1.97;1.80;;;15.70;63.80;;;;;;5122259;27;43435;-70
2023/12/05 06:45:13;;;;;;;1.87;1.70;;;15.70;63.80;;;;;;5116058;27;45410;-69
2023/12/05 06:47:46;;;;;;;1.80;1.70;;;15.70;63.90;;;;;;5122225;27;43430;-70
2023/12/05 06:50:16;;;;;;;1.80;1.70;;;15.80;64.00;;;;;;5120934;27;43437;-70
2023/12/05 06:52:47;;;;;;;2.60;1.77;;;15.80;63.60;;;;;;5122360;27;43416;-70
2023/12/05 06:55:20;;;;;;;4.40;1.47;;;15.90;63.30;;;;;;5121014;27;43632;-70
2023/12/05 06:57:51;;;;;;;1.47;1.37;;;15.90;63.20;;;;;;5113341;27;44557;-70
2023/12/05 07:00:20;;;;;;;1.33;1.33;;;15.90;63.30;;;;;;5112376;27;43450;-70
2023/12/05 07:02:51;;;;;;;1.67;1.57;;;15.80;63.30;;;;;;5114129;27;43431;-70
2023/12/05 07:05:19;;;;;;;1.43;1.43;;;15.80;63.50;;;;;;5111730;27;43697;-70
2023/12/05 07:07:47;;;;;;;1.87;1.77;;;15.80;63.50;;;;;;5103274;27;43505;-71
2023/12/05 07:10:15;;;;;;;1.80;1.70;;;15.80;63.50;;;;;;5109834;27;43379;-71
2023/12/05 07:12:44;;;;;;;1.53;1.53;;;15.80;63.60;;;;;;5110558;27;43783;-71
2023/12/05 07:15:12;;;;;;;1.57;1.47;;;15.80;63.60;;;;;;5110341;27;43925;-71
2023/12/05 07:17:40;;;;;;;1.70;1.50;;;15.80;63.70;;;;;;5108146;27;43416;-71
2023/12/05 07:20:10;;;;;;;1.60;1.50;;;15.80;63.80;;;;;;5109754;27;43454;-70
2023/12/05 07:22:38;;;;;;;1.77;1.67;;;15.70;63.90;;;;;;5108808;27;43494;-71
2023/12/05 07:25:07;;;;;;;1.40;1.40;;;15.70;63.80;;;;;;5109905;27;43860;-71
2023/12/05 07:27:35;;;;;;;1.30;1.30;;;15.80;63.80;;;;;;5109733;27;43430;-70
2023/12/05 07:30:04;;;;;;;1.30;1.30;;;15.70;63.80;;;;;;5110138;27;43331;-71
2023/12/05 07:32:32;;;;;;;1.30;1.17;;;15.80;63.90;;;;;;5103530;27;43982;-71
2023/12/05 07:35:00;;;;;;;1.60;1.50;;;15.70;63.80;;;;;;5109874;27;43780;-71
2023/12/05 07:37:30;;;;;;;1.87;1.77;;;15.70;63.90;;;;;;5109624;27;43375;-71
2023/12/05 07:39:58;;;;;;;1.23;1.23;;;15.70;63.90;;;;;;5109339;27;43431;-71
2023/12/05 07:42:26;;;;;;;1.50;1.50;;;15.80;64.00;;;;;;5110292;27;43431;-70
2023/12/05 07:44:54;;;;;;;1.67;1.57;;;15.80;63.90;;;;;;5109813;27;44100;-71
2023/12/05 07:47:23;;;;;;;1.57;1.43;;;15.90;64.30;;;;;;5109538;27;43415;-71
2023/12/05 07:49:51;;;;;;;1.50;1.40;;;15.90;63.40;;;;;;5104504;27;43403;-71
2023/12/05 07:52:19;;;;;;;1.33;1.33;;;15.90;63.40;;;;;;5096407;27;43463;-72
2023/12/05 07:54:49;;;;;;;1.30;1.30;;;15.90;63.50;;;;;;5109694;27;43606;-71
2023/12/05 07:57:22;;;;;;;1.13;1.13;;;15.80;63.60;;;;;;5107440;27;43428;-72
2023/12/05 07:59:50;;;;;;;1.40;1.30;;;15.80;63.60;;;;;;5109402;27;43758;-71
2023/12/05 08:02:18;;;;;;;1.30;1.30;;;15.80;63.50;;;;;;5091431;27;43582;-72
2023/12/05 08:04:46;;;;;;;1.20;1.20;;;15.80;63.60;;;;;;5108956;27;43575;-72
2023/12/05 08:07:14;;;;;;;1.30;1.30;;;15.80;63.60;;;;;;5108855;27;43327;-71
2023/12/05 08:09:42;;;;;;;1.70;1.30;;;15.80;63.80;;;;;;5109063;27;43423;-72
2023/12/05 08:12:11;;;;;;;1.53;1.50;;;15.80;63.80;;;;;;5096128;27;43716;-71
2023/12/05 08:14:40;;;;;;;1.50;1.40;;;15.80;64.00;;;;;;5121868;27;43624;-67
2023/12/05 08:17:08;;;;;;;1.50;1.40;;;15.80;64.00;;;;;;5133521;27;43503;-67
2023/12/05 08:19:36;;;;;;;1.33;1.33;;;15.80;64.00;;;;;;5115182;27;43449;-67
2023/12/05 08:22:04;;;;;;;1.40;1.40;;;15.90;63.70;;;;;;5133917;27;43362;-68
2023/12/05 08:24:32;;;;;;;1.20;1.20;;;15.90;63.50;;;;;;5132765;27;43595;-68
2023/12/05 08:27:00;;;;;;;1.13;1.13;;;15.90;63.50;;;;;;5129428;27;43399;-67
2023/12/05 08:29:30;;;;;;;1.30;1.20;;;15.90;63.60;;;;;;5133225;27;43397;-67
2023/12/05 08:31:58;;;;;;;1.30;1.30;;;15.80;63.50;;;;;;5134314;27;43980;-68
2023/12/05 08:34:26;;;;;;;1.27;1.20;;;15.80;63.80;;;;;;5120861;27;43974;-69
2023/12/05 08:36:55;;;;;;;1.50;1.40;;;15.80;63.70;;;;;;5133492;27;43359;-70
2023/12/05 08:39:23;;;;;;;1.40;1.40;;;15.80;63.80;;;;;;5133029;27;43408;-67
2023/12/05 08:41:51;;;;;;;1.20;1.20;;;15.80;63.80;;;;;;5133989;27;43409;-67
2023/12/05 08:44:19;;;;;;;1.40;1.33;;;15.80;63.80;;;;;;5133585;27;43789;-67
2023/12/05 08:46:49;;;;;;;1.10;1.10;;;15.80;63.90;;;;;;5133042;27;43426;-67
2023/12/05 08:49:17;;;;;;;1.00;1.00;;;15.80;63.90;;;;;;5132673;27;43797;-69
2023/12/05 08:51:45;;;;;;;1.33;1.33;;;15.80;64.10;;;;;;5132829;27;43411;-68
2023/12/05 08:54:13;;;;;;;1.10;1.10;;;15.80;64.00;;;;;;5132704;27;43932;-67
2023/12/05 08:56:41;;;;;;;1.40;1.30;;;15.80;63.80;;;;;;5133400;27;43386;-67
2023/12/05 08:59:09;;;;;;;1.10;1.10;;;15.80;63.70;;;;;;5133082;27;43369;-69
2023/12/05 09:01:37;;;;;;;1.43;1.43;;;15.80;63.70;;;;;;5133515;27;43870;-68
2023/12/05 09:04:06;;;;;;;1.30;1.30;;;15.80;63.80;;;;;;5115179;27;44194;-68
2023/12/05 09:06:34;;;;;;;1.10;1.10;;;15.80;63.80;;;;;;5132561;27;43391;-69
2023/12/05 09:09:03;;;;;;;1.20;1.20;;;15.80;64.00;;;;;;5127616;27;43553;-68
2023/12/05 09:11:31;;;;;;;1.20;1.20;;;15.80;64.70;;;;;;5128916;27;43348;-68
2023/12/05 09:13:59;;;;;;;1.10;1.10;;;15.80;64.00;;;;;;5132655;27;43611;-69
2023/12/05 09:16:27;;;;;;;1.50;1.40;;;15.80;64.00;;;;;;5124802;27;44778;-67
2023/12/05 09:18:55;;;;;;;1.10;1.10;;;15.80;64.00;;;;;;5126256;27;43369;-69
2023/12/05 09:21:25;;;;;;;1.10;1.10;;;15.80;64.00;;;;;;5130106;27;43429;-67
2023/12/05 09:23:53;;;;;;;1.07;1.07;;;15.80;64.00;;;;;;5125318;27;43832;-72
2023/12/05 09:26:21;;;;;;;1.13;1.13;;;15.80;64.00;;;;;;5108131;27;43934;-71
2023/12/05 09:28:51;;;;;;;1.10;1.10;;;15.80;64.30;;;;;;5108043;27;43856;-71
2023/12/05 09:31:18;;;;;;;1.10;1.10;;;15.80;64.00;;;;;;5104616;27;43998;-72
2023/12/05 09:33:46;;;;;;;0.97;0.97;;;15.90;63.80;;;;;;5108037;27;44034;-72
2023/12/05 09:36:14;;;;;;;1.00;1.00;;;15.90;63.60;;;;;;5108275;27;43390;-72
2023/12/05 09:38:43;;;;;;;1.10;1.10;;;16.00;63.60;;;;;;5102011;27;43399;-71
2023/12/05 09:41:12;;;;;;;1.40;1.27;;;16.00;63.60;;;;;;5108128;27;43419;-72
2023/12/05 09:43:40;;;;;;;1.23;1.23;;;15.90;63.60;;;;;;5107757;27;43663;-71
2023/12/05 09:46:08;;;;;;;1.10;1.10;;;15.90;63.80;;;;;;5108107;27;43904;-72
2023/12/05 09:48:47;;;;;;;1.10;1.10;;;15.90;63.80;;;;;;5107664;27;43492;-71
2023/12/05 09:51:16;;;;;;;1.17;1.17;;;15.90;63.80;;;;;;5108183;27;43349;-72
2023/12/05 09:53:46;;;;;;;1.30;1.30;;;15.90;63.80;;;;;;5107623;27;44006;-72
2023/12/05 09:56:15;;;;;;;1.20;1.20;;;15.90;63.90;;;;;;5100653;27;43344;-72
2023/12/05 09:58:43;;;;;;;1.00;1.00;;;15.80;63.90;;;;;;5101351;27;43309;-71
2023/12/05 10:01:11;;;;;;;1.13;1.13;;;15.80;64.00;;;;;;5101502;27;43328;-71
2023/12/05 10:03:40;;;;;;;1.10;1.10;;;15.80;64.00;;;;;;5107570;27;43724;-70
2023/12/05 10:06:11;;;;;;;1.10;1.10;;;15.80;64.00;;;;;;5126231;27;43426;-69
2023/12/05 10:08:40;;;;;;;1.00;1.00;;;15.80;64.00;;;;;;5126051;27;43658;-70
2023/12/05 10:11:09;;;;;;;1.03;1.03;;;15.80;64.00;;;;;;5132778;27;43492;-69
2023/12/05 10:13:41;;;;;;;1.00;1.00;;;15.80;64.00;;;;;;5132829;27;43685;-69
2023/12/05 10:16:09;;;;;;;1.00;1.00;;;15.80;64.00;;;;;;5132094;27;43399;-69
2023/12/05 10:18:37;;;;;;;1.07;1.07;;;15.80;64.00;;;;;;5131863;27;43451;-67
2023/12/05 10:21:05;;;;;;;1.20;1.20;;;15.80;64.20;;;;;;5134884;27;43322;-69
2023/12/05 10:23:34;;;;;;;1.00;1.00;;;15.80;64.30;;;;;;5135550;27;43837;-68
2023/12/05 10:26:02;;;;;;;1.07;1.07;;;15.80;64.00;;;;;;5135922;27;43436;-69
2023/12/05 10:28:31;;;;;;;1.27;1.27;;;15.90;63.80;;;;;;5136046;27;43384;-70
2023/12/05 10:30:59;;;;;;;1.10;1.10;;;15.90;63.70;;;;;;5135808;27;43436;-68
2023/12/05 10:33:27;;;;;;;1.10;1.10;;;15.90;63.70;;;;;;5135763;27;43886;-67
2023/12/05 10:35:56;;;;;;;1.23;1.23;;;15.90;63.80;;;;;;5135621;27;43340;-68
2023/12/05 10:38:24;;;;;;;1.00;1.00;;;15.90;63.90;;;;;;5135234;27;43340;-68
2023/12/05 10:40:53;;;;;;;1.20;1.20;;;15.90;64.00;;;;;;5135073;27;43453;-68
2023/12/05 10:43:21;;;;;;;1.10;1.10;;;15.90;64.00;;;;;;5128371;27;45699;-69
2023/12/05 10:45:51;;;;;;;1.00;1.00;;;15.90;64.00;;;;;;5134403;27;43505;-70
2023/12/05 10:48:19;;;;;;;1.00;1.00;;;15.90;64.00;;;;;;5135360;27;43424;-69
2023/12/05 10:50:47;;;;;;;1.10;1.10;;;15.90;64.10;;;;;;5135659;27;43401;-67
2023/12/05 10:53:15;;;;;;;1.20;1.20;;;15.80;64.00;;;;;;5134763;27;43859;-68
2023/12/05 10:55:43;;;;;;;1.10;1.10;;;15.80;64.00;;;;;;5135099;27;43468;-67
2023/12/05 10:58:11;;;;;;;0.90;0.90;;;15.80;64.00;;;;;;5135175;27;43331;-68
2023/12/05 11:00:40;;;;;;;1.00;1.00;;;15.90;64.10;;;;;;5135477;27;43375;-68
2023/12/05 11:03:10;;;;;;;0.90;0.90;;;15.90;63.70;;;;;;5134896;27;43863;-67
2023/12/05 11:05:38;;;;;;;1.10;1.10;;;16.00;63.60;;;;;;5134910;27;43401;-68
2023/12/05 11:08:06;;;;;;;0.90;0.90;;;16.00;63.60;;;;;;5132030;27;43436;-67
2023/12/05 11:10:34;;;;;;;1.07;1.07;;;16.00;63.70;;;;;;5134345;27;43928;-67
2023/12/05 11:13:02;;;;;;;0.90;0.90;;;15.90;63.70;;;;;;5134451;27;43908;-67
2023/12/05 11:15:32;;;;;;;0.90;0.90;;;15.90;63.70;;;;;;5133335;27;43521;-67
2023/12/05 11:18:01;;;;;;;1.07;1.07;;;15.90;63.70;;;;;;5134625;27;43348;-68
2023/12/05 11:20:49;;;;;;;1.10;1.10;;;15.90;63.80;;;;;;5134759;27;43545;-67
2023/12/05 11:23:25;;;;;;;0.80;0.80;;;15.90;64.50;;;;;;5134070;27;43885;-68
2023/12/05 11:25:58;;;;;;;1.00;1.00;;;15.90;63.90;;;;;;5128896;27;44722;-69
2023/12/05 11:28:38;;;;;;;0.93;0.93;;;15.90;64.00;;;;;;5134367;27;43379;-67
2023/12/05 11:31:11;;;;;;;1.00;1.00;;;15.90;64.00;;;;;;5134679;27;43343;-69
2023/12/05 11:34:07;;;;;;;0.87;0.87;;;15.90;64.80;;;;;;5134412;27;43602;-67
2023/12/05 11:36:40;;;;;;;0.97;0.97;;;15.90;64.10;;;;;;5119344;27;44861;-67
2023/12/05 11:39:08;;;;;;;0.70;0.70;;;15.90;64.00;;;;;;5134219;27;43521;-66
2023/12/05 11:41:39;;;;;;;0.90;0.90;;;15.90;64.10;;;;;;5134191;27;43802;-66
2023/12/05 11:44:20;;;;;;;0.70;0.70;;;15.90;64.10;;;;;;5128931;27;43852;-70
2023/12/05 11:46:49;;;;;;;1.20;1.20;;;15.90;64.10;;;;;;5122422;27;43440;-69
2023/12/05 11:49:27;;;;;;;0.70;0.70;;;15.80;64.00;;;;;;5121083;27;43487;-70
2023/12/05 11:51:59;;;;;;;0.90;0.90;;;15.90;64.10;;;;;;5121800;27;43446;-69
2023/12/05 11:54:32;;;;;;;1.00;1.00;;;16.00;63.90;;;;;;5122590;27;43739;-69
2023/12/05 11:57:11;;;;;;;1.00;1.00;;;16.00;63.40;;;;;;5122697;27;43400;-70
2023/12/05 11:59:39;;;;;;;1.00;1.00;;;16.00;63.30;;;;;;5116003;27;43412;-71
2023/12/05 12:02:08;;;;;;;0.80;0.80;;;16.10;63.40;;;;;;5122899;27;43296;-71
2023/12/05 12:04:36;;;;;;;0.90;0.90;;;16.00;63.40;;;;;;5120986;27;43607;-70
2023/12/05 12:07:06;;;;;;;0.90;0.90;;;16.00;63.50;;;;;;5120688;27;43433;-71
2023/12/05 12:09:37;;;;;;;0.90;0.90;;;16.00;63.50;;;;;;5114178;27;43337;-70
2023/12/05 12:12:06;;;;;;;0.97;0.97;;;16.00;63.50;;;;;;5119219;27;43780;-70
2023/12/05 12:14:34;;;;;;;1.00;1.00;;;16.00;63.60;;;;;;5113058;27;45629;-70
2023/12/05 12:17:04;;;;;;;0.87;0.87;;;16.00;63.70;;;;;;5121423;27;43409;-70
2023/12/05 12:19:37;;;;;;;0.90;0.90;;;16.00;63.80;;;;;;5121594;27;43817;-70
2023/12/05 12:22:08;;;;;;;0.73;0.73;;;15.90;63.70;;;;;;5121266;27;43470;-70
2023/12/05 12:24:36;;;;;;;1.00;1.00;;;15.90;63.80;;;;;;5127470;27;43767;-68
2023/12/05 12:27:06;;;;;;;0.90;0.90;;;15.90;63.80;;;;;;5130485;27;43399;-67
2023/12/05 12:29:36;;;;;;;0.80;0.80;;;15.90;63.70;;;;;;5133012;27;43370;-68
2023/12/05 12:32:06;;;;;;;0.87;0.87;;;15.90;63.70;;;;;;5133640;27;43468;-68
2023/12/05 12:34:34;;;;;;;0.70;0.70;;;15.90;63.80;;;;;;5133495;27;43599;-68
2023/12/05 12:37:02;;;;;;;0.90;0.90;;;15.90;63.80;;;;;;5132879;27;43780;-69
2023/12/05 12:39:45;;;;;;;0.80;0.80;;;15.90;63.80;;;;;;5133717;27;43350;-68
2023/12/05 12:42:16;;;;;;;0.80;0.80;;;15.90;63.90;;;;;;5133460;27;43489;-67
2023/12/05 12:44:44;;;;;;;1.37;1.07;;;15.90;63.90;;;;;;5125819;27;43920;-67
2023/12/05 12:47:12;;;;;;;0.90;0.90;;;15.90;63.70;;;;;;5133384;27;43373;-67
2023/12/05 12:49:40;;;;;;;1.80;0.93;;;16.00;63.50;;;;;;5116486;27;43512;-69
2023/12/05 12:52:08;;;;;;;1.00;1.00;;;16.00;63.50;;;;;;5133474;27;43351;-69
2023/12/05 12:54:38;;;;;;;0.70;0.70;;;16.00;63.50;;;;;;5126050;27;43950;-70
2023/12/05 12:57:08;;;;;;;0.90;0.90;;;16.00;63.50;;;;;;5119670;27;43389;-70